sensor_id;sensor_type;location;lat;lon;timestamp;P1;durP1;ratioP1;P2;durP2;ratioP2
55409;SDS011;41279;43.546;16.426;2022-10-30T00:00:25;16.17;;;8.10;;
55409;SDS011;41279;43.546;16.426;2022-10-30T00:02:50;20.00;;;7.82;;
55409;SDS011;41279;43.546;16.426;2022-10-30T00:05:16;20.23;;;7.63;;
55409;SDS011;41279;43.546;16.426;2022-10-30T00:07:42;18.00;;;8.25;;
55409;SDS011;41279;43.546;16.426;2022-10-30T00:10:08;20.02;;;8.45;;
55409;SDS011;41279;43.546;16.426;2022-10-30T00:12:34;15.38;;;7.72;;
55409;SDS011;41279;43.546;16.426;2022-10-30T00:14:59;16.90;;;7.70;;
55409;SDS011;41279;43.546;16.426;2022-10-30T00:17:25;15.32;;;8.43;;
55409;SDS011;41279;43.546;16.426;2022-10-30T00:19:50;19.15;;;7.65;;
55409;SDS011;41279;43.546;16.426;2022-10-30T00:22:15;18.80;;;8.30;;
55409;SDS011;41279;43.546;16.426;2022-10-30T00:24:41;19.02;;;8.23;;
55409;SDS011;41279;43.546;16.426;2022-10-30T00:27:06;18.50;;;8.18;;
55409;SDS011;41279;43.546;16.426;2022-10-30T00:29:31;15.68;;;7.03;;
55409;SDS011;41279;43.546;16.426;2022-10-30T00:32:03;16.85;;;7.25;;
55409;SDS011;41279;43.546;16.426;2022-10-30T00:34:29;18.40;;;8.68;;
55409;SDS011;41279;43.546;16.426;2022-10-30T00:37:01;14.15;;;7.63;;
55409;SDS011;41279;43.546;16.426;2022-10-30T00:39:27;14.80;;;7.97;;
55409;SDS011;41279;43.546;16.426;2022-10-30T00:41:52;14.32;;;6.85;;
55409;SDS011;41279;43.546;16.426;2022-10-30T00:47:02;14.00;;;7.50;;
55409;SDS011;41279;43.546;16.426;2022-10-30T00:49:38;14.35;;;7.18;;
55409;SDS011;41279;43.546;16.426;2022-10-30T00:52:39;15.63;;;6.70;;
55409;SDS011;41279;43.546;16.426;2022-10-30T00:57:39;14.77;;;6.45;;
55409;SDS011;41279;43.546;16.426;2022-10-30T01:00:07;11.70;;;6.90;;
55409;SDS011;41279;43.546;16.426;2022-10-30T01:02:34;14.05;;;6.47;;
55409;SDS011;41279;43.546;16.426;2022-10-30T01:05:00;12.65;;;6.28;;
55409;SDS011;41279;43.546;16.426;2022-10-30T01:07:28;16.05;;;6.95;;
55409;SDS011;41279;43.546;16.426;2022-10-30T01:09:53;14.65;;;7.03;;
55409;SDS011;41279;43.546;16.426;2022-10-30T01:12:18;12.95;;;7.07;;
55409;SDS011;41279;43.546;16.426;2022-10-30T01:14:51;12.98;;;6.63;;
55409;SDS011;41279;43.546;16.426;2022-10-30T01:17:24;14.38;;;7.65;;
55409;SDS011;41279;43.546;16.426;2022-10-30T01:25:26;11.70;;;6.60;;
55409;SDS011;41279;43.546;16.426;2022-10-30T01:36:05;15.43;;;7.05;;
55409;SDS011;41279;43.546;16.426;2022-10-30T01:38:39;12.80;;;6.90;;
55409;SDS011;41279;43.546;16.426;2022-10-30T01:41:09;13.95;;;6.03;;
55409;SDS011;41279;43.546;16.426;2022-10-30T01:43:35;12.40;;;6.07;;
55409;SDS011;41279;43.546;16.426;2022-10-30T01:48:49;16.17;;;7.50;;
55409;SDS011;41279;43.546;16.426;2022-10-30T01:51:22;13.13;;;5.43;;
55409;SDS011;41279;43.546;16.426;2022-10-30T01:59:59;11.02;;;5.38;;
55409;SDS011;41279;43.546;16.426;2022-10-30T02:02:36;14.60;;;5.80;;
55409;SDS011;41279;43.546;16.426;2022-10-30T02:05:02;11.75;;;5.30;;
55409;SDS011;41279;43.546;16.426;2022-10-30T02:07:30;13.70;;;5.35;;
55409;SDS011;41279;43.546;16.426;2022-10-30T02:09:55;13.50;;;5.03;;
55409;SDS011;41279;43.546;16.426;2022-10-30T02:12:21;13.43;;;5.43;;
55409;SDS011;41279;43.546;16.426;2022-10-30T02:14:48;14.77;;;5.80;;
55409;SDS011;41279;43.546;16.426;2022-10-30T02:17:17;12.27;;;5.72;;
55409;SDS011;41279;43.546;16.426;2022-10-30T02:19:42;12.50;;;5.60;;
55409;SDS011;41279;43.546;16.426;2022-10-30T02:22:09;13.63;;;5.78;;
55409;SDS011;41279;43.546;16.426;2022-10-30T02:24:34;14.82;;;6.20;;
55409;SDS011;41279;43.546;16.426;2022-10-30T02:27:00;13.13;;;5.55;;
55409;SDS011;41279;43.546;16.426;2022-10-30T02:29:25;14.13;;;6.47;;
55409;SDS011;41279;43.546;16.426;2022-10-30T02:31:51;11.85;;;5.95;;
55409;SDS011;41279;43.546;16.426;2022-10-30T02:34:16;13.50;;;5.60;;
55409;SDS011;41279;43.546;16.426;2022-10-30T02:36:42;11.90;;;5.60;;
55409;SDS011;41279;43.546;16.426;2022-10-30T02:39:07;10.70;;;5.55;;
55409;SDS011;41279;43.546;16.426;2022-10-30T02:41:33;15.07;;;5.88;;
55409;SDS011;41279;43.546;16.426;2022-10-30T02:43:58;11.88;;;5.63;;
55409;SDS011;41279;43.546;16.426;2022-10-30T02:46:23;14.15;;;6.28;;
55409;SDS011;41279;43.546;16.426;2022-10-30T02:48:49;14.23;;;5.80;;
55409;SDS011;41279;43.546;16.426;2022-10-30T02:51:14;12.93;;;6.00;;
55409;SDS011;41279;43.546;16.426;2022-10-30T02:53:40;12.32;;;5.97;;
55409;SDS011;41279;43.546;16.426;2022-10-30T02:56:06;12.07;;;5.78;;
55409;SDS011;41279;43.546;16.426;2022-10-30T02:58:33;15.55;;;5.60;;
55409;SDS011;41279;43.546;16.426;2022-10-30T03:01:09;15.98;;;5.93;;
55409;SDS011;41279;43.546;16.426;2022-10-30T03:03:35;11.82;;;5.75;;
55409;SDS011;41279;43.546;16.426;2022-10-30T03:06:02;15.82;;;5.55;;
55409;SDS011;41279;43.546;16.426;2022-10-30T03:08:29;15.18;;;6.07;;
55409;SDS011;41279;43.546;16.426;2022-10-30T03:11:01;13.07;;;5.88;;
55409;SDS011;41279;43.546;16.426;2022-10-30T03:13:28;18.90;;;5.97;;
55409;SDS011;41279;43.546;16.426;2022-10-30T03:15:59;13.52;;;6.07;;
55409;SDS011;41279;43.546;16.426;2022-10-30T03:18:32;15.00;;;5.72;;
55409;SDS011;41279;43.546;16.426;2022-10-30T03:20:58;13.00;;;5.75;;
55409;SDS011;41279;43.546;16.426;2022-10-30T03:23:25;12.70;;;5.18;;
55409;SDS011;41279;43.546;16.426;2022-10-30T03:25:55;11.65;;;5.95;;
55409;SDS011;41279;43.546;16.426;2022-10-30T03:28:22;13.07;;;6.13;;
55409;SDS011;41279;43.546;16.426;2022-10-30T03:30:49;12.95;;;6.05;;
55409;SDS011;41279;43.546;16.426;2022-10-30T03:33:15;12.73;;;6.45;;
55409;SDS011;41279;43.546;16.426;2022-10-30T03:35:44;17.17;;;6.53;;
55409;SDS011;41279;43.546;16.426;2022-10-30T03:38:10;17.23;;;6.88;;
55409;SDS011;41279;43.546;16.426;2022-10-30T03:40:36;15.95;;;6.72;;
55409;SDS011;41279;43.546;16.426;2022-10-30T03:43:01;14.30;;;6.93;;
55409;SDS011;41279;43.546;16.426;2022-10-30T03:45:27;14.25;;;6.53;;
55409;SDS011;41279;43.546;16.426;2022-10-30T03:47:52;14.05;;;6.75;;
55409;SDS011;41279;43.546;16.426;2022-10-30T03:50:17;12.90;;;6.13;;
55409;SDS011;41279;43.546;16.426;2022-10-30T03:52:43;13.55;;;7.13;;
55409;SDS011;41279;43.546;16.426;2022-10-30T03:55:08;15.43;;;6.55;;
55409;SDS011;41279;43.546;16.426;2022-10-30T03:57:37;13.30;;;6.47;;
55409;SDS011;41279;43.546;16.426;2022-10-30T04:00:02;16.80;;;7.75;;
55409;SDS011;41279;43.546;16.426;2022-10-30T04:02:29;14.80;;;6.20;;
55409;SDS011;41279;43.546;16.426;2022-10-30T04:04:54;13.75;;;6.28;;
55409;SDS011;41279;43.546;16.426;2022-10-30T04:07:20;13.13;;;6.80;;
55409;SDS011;41279;43.546;16.426;2022-10-30T04:09:45;16.05;;;6.15;;
55409;SDS011;41279;43.546;16.426;2022-10-30T04:12:10;15.07;;;7.22;;
55409;SDS011;41279;43.546;16.426;2022-10-30T04:14:36;14.95;;;7.05;;
55409;SDS011;41279;43.546;16.426;2022-10-30T04:17:01;11.90;;;5.80;;
55409;SDS011;41279;43.546;16.426;2022-10-30T04:19:26;19.77;;;6.53;;
55409;SDS011;41279;43.546;16.426;2022-10-30T04:21:52;19.58;;;6.88;;
55409;SDS011;41279;43.546;16.426;2022-10-30T04:24:17;14.82;;;6.70;;
55409;SDS011;41279;43.546;16.426;2022-10-30T04:26:43;18.48;;;6.45;;
55409;SDS011;41279;43.546;16.426;2022-10-30T04:29:08;10.80;;;5.15;;
55409;SDS011;41279;43.546;16.426;2022-10-30T04:31:34;14.90;;;6.57;;
55409;SDS011;41279;43.546;16.426;2022-10-30T04:33:59;20.30;;;6.53;;
55409;SDS011;41279;43.546;16.426;2022-10-30T04:36:25;14.07;;;6.63;;
55409;SDS011;41279;43.546;16.426;2022-10-30T04:38:56;17.73;;;6.28;;
55409;SDS011;41279;43.546;16.426;2022-10-30T04:41:22;12.27;;;5.75;;
55409;SDS011;41279;43.546;16.426;2022-10-30T04:43:48;12.82;;;6.07;;
55409;SDS011;41279;43.546;16.426;2022-10-30T04:46:14;15.63;;;6.43;;
55409;SDS011;41279;43.546;16.426;2022-10-30T04:48:39;16.42;;;8.02;;
55409;SDS011;41279;43.546;16.426;2022-10-30T04:51:05;16.52;;;6.88;;
55409;SDS011;41279;43.546;16.426;2022-10-30T04:53:30;13.57;;;6.20;;
55409;SDS011;41279;43.546;16.426;2022-10-30T04:55:55;12.90;;;5.85;;
55409;SDS011;41279;43.546;16.426;2022-10-30T04:58:21;12.88;;;5.78;;
55409;SDS011;41279;43.546;16.426;2022-10-30T05:00:46;16.77;;;6.57;;
55409;SDS011;41279;43.546;16.426;2022-10-30T05:03:17;18.02;;;6.40;;
55409;SDS011;41279;43.546;16.426;2022-10-30T05:05:44;10.75;;;5.60;;
55409;SDS011;41279;43.546;16.426;2022-10-30T05:08:11;16.08;;;6.78;;
55409;SDS011;41279;43.546;16.426;2022-10-30T05:10:39;12.82;;;5.85;;
55409;SDS011;41279;43.546;16.426;2022-10-30T05:13:05;14.50;;;6.35;;
55409;SDS011;41279;43.546;16.426;2022-10-30T05:15:30;16.42;;;6.25;;
55409;SDS011;41279;43.546;16.426;2022-10-30T05:17:56;14.60;;;6.90;;
55409;SDS011;41279;43.546;16.426;2022-10-30T05:20:21;13.82;;;6.30;;
55409;SDS011;41279;43.546;16.426;2022-10-30T05:22:56;14.70;;;6.65;;
55409;SDS011;41279;43.546;16.426;2022-10-30T05:25:22;14.43;;;6.50;;
55409;SDS011;41279;43.546;16.426;2022-10-30T05:27:48;16.25;;;7.13;;
55409;SDS011;41279;43.546;16.426;2022-10-30T05:30:14;15.77;;;7.20;;
55409;SDS011;41279;43.546;16.426;2022-10-30T05:32:39;15.63;;;7.03;;
55409;SDS011;41279;43.546;16.426;2022-10-30T05:35:04;17.42;;;6.70;;
55409;SDS011;41279;43.546;16.426;2022-10-30T05:37:30;17.08;;;7.57;;
55409;SDS011;41279;43.546;16.426;2022-10-30T05:39:55;30.42;;;12.77;;
55409;SDS011;41279;43.546;16.426;2022-10-30T05:42:21;22.15;;;7.95;;
55409;SDS011;41279;43.546;16.426;2022-10-30T05:44:46;18.83;;;8.55;;
55409;SDS011;41279;43.546;16.426;2022-10-30T05:47:11;17.42;;;7.40;;
55409;SDS011;41279;43.546;16.426;2022-10-30T05:49:37;13.75;;;6.43;;
55409;SDS011;41279;43.546;16.426;2022-10-30T05:52:02;15.43;;;7.70;;
55409;SDS011;41279;43.546;16.426;2022-10-30T05:54:28;19.58;;;9.10;;
55409;SDS011;41279;43.546;16.426;2022-10-30T05:56:53;28.70;;;12.32;;
55409;SDS011;41279;43.546;16.426;2022-10-30T05:59:18;17.33;;;8.48;;
55409;SDS011;41279;43.546;16.426;2022-10-30T06:01:44;20.23;;;8.05;;
55409;SDS011;41279;43.546;16.426;2022-10-30T06:04:09;15.65;;;7.13;;
55409;SDS011;41279;43.546;16.426;2022-10-30T06:06:34;33.13;;;9.80;;
55409;SDS011;41279;43.546;16.426;2022-10-30T06:09:00;13.95;;;6.45;;
55409;SDS011;41279;43.546;16.426;2022-10-30T06:11:25;13.52;;;6.22;;
55409;SDS011;41279;43.546;16.426;2022-10-30T06:13:50;17.15;;;7.60;;
55409;SDS011;41279;43.546;16.426;2022-10-30T06:16:16;13.50;;;6.30;;
55409;SDS011;41279;43.546;16.426;2022-10-30T06:18:41;13.48;;;5.93;;
55409;SDS011;41279;43.546;16.426;2022-10-30T06:21:06;12.68;;;6.35;;
55409;SDS011;41279;43.546;16.426;2022-10-30T06:23:32;13.02;;;5.80;;
55409;SDS011;41279;43.546;16.426;2022-10-30T06:25:57;14.88;;;5.53;;
55409;SDS011;41279;43.546;16.426;2022-10-30T06:28:23;17.25;;;6.45;;
55409;SDS011;41279;43.546;16.426;2022-10-30T06:30:48;11.52;;;5.93;;
55409;SDS011;41279;43.546;16.426;2022-10-30T06:33:20;13.10;;;6.07;;
55409;SDS011;41279;43.546;16.426;2022-10-30T06:35:49;14.27;;;6.40;;
55409;SDS011;41279;43.546;16.426;2022-10-30T06:38:14;12.57;;;5.70;;
55409;SDS011;41279;43.546;16.426;2022-10-30T06:40:47;18.08;;;6.95;;
55409;SDS011;41279;43.546;16.426;2022-10-30T06:43:13;14.25;;;7.28;;
55409;SDS011;41279;43.546;16.426;2022-10-30T06:45:38;14.80;;;6.85;;
55409;SDS011;41279;43.546;16.426;2022-10-30T06:48:03;15.93;;;6.75;;
55409;SDS011;41279;43.546;16.426;2022-10-30T06:50:29;13.70;;;6.53;;
55409;SDS011;41279;43.546;16.426;2022-10-30T06:52:54;16.88;;;6.30;;
55409;SDS011;41279;43.546;16.426;2022-10-30T06:55:20;14.95;;;6.95;;
55409;SDS011;41279;43.546;16.426;2022-10-30T06:57:45;15.23;;;6.90;;
55409;SDS011;41279;43.546;16.426;2022-10-30T07:00:17;17.05;;;6.97;;
55409;SDS011;41279;43.546;16.426;2022-10-30T07:02:42;16.77;;;7.38;;
55409;SDS011;41279;43.546;16.426;2022-10-30T07:05:07;12.88;;;7.25;;
55409;SDS011;41279;43.546;16.426;2022-10-30T07:07:33;11.43;;;5.95;;
55409;SDS011;41279;43.546;16.426;2022-10-30T07:09:58;14.02;;;6.10;;
55409;SDS011;41279;43.546;16.426;2022-10-30T07:12:23;16.40;;;7.75;;
55409;SDS011;41279;43.546;16.426;2022-10-30T07:14:49;17.20;;;7.22;;
55409;SDS011;41279;43.546;16.426;2022-10-30T07:17:14;29.05;;;9.75;;
55409;SDS011;41279;43.546;16.426;2022-10-30T07:19:40;15.25;;;7.15;;
55409;SDS011;41279;43.546;16.426;2022-10-30T07:22:05;20.33;;;6.97;;
55409;SDS011;41279;43.546;16.426;2022-10-30T07:24:30;22.73;;;6.57;;
55409;SDS011;41279;43.546;16.426;2022-10-30T07:26:56;18.13;;;6.32;;
55409;SDS011;41279;43.546;16.426;2022-10-30T07:29:21;17.40;;;5.95;;
55409;SDS011;41279;43.546;16.426;2022-10-30T07:31:46;12.07;;;5.60;;
55409;SDS011;41279;43.546;16.426;2022-10-30T07:34:13;18.98;;;6.07;;
55409;SDS011;41279;43.546;16.426;2022-10-30T07:36:39;16.98;;;6.95;;
55409;SDS011;41279;43.546;16.426;2022-10-30T07:39:04;15.25;;;6.90;;
55409;SDS011;41279;43.546;16.426;2022-10-30T07:41:29;18.48;;;6.95;;
55409;SDS011;41279;43.546;16.426;2022-10-30T07:43:55;11.95;;;5.18;;
55409;SDS011;41279;43.546;16.426;2022-10-30T07:46:20;13.63;;;5.50;;
55409;SDS011;41279;43.546;16.426;2022-10-30T07:48:46;14.93;;;5.72;;
55409;SDS011;41279;43.546;16.426;2022-10-30T07:51:11;16.67;;;5.72;;
55409;SDS011;41279;43.546;16.426;2022-10-30T07:53:39;16.23;;;5.88;;
55409;SDS011;41279;43.546;16.426;2022-10-30T07:56:04;18.77;;;6.28;;
55409;SDS011;41279;43.546;16.426;2022-10-30T07:58:30;18.65;;;6.53;;
55409;SDS011;41279;43.546;16.426;2022-10-30T08:00:55;23.77;;;6.53;;
55409;SDS011;41279;43.546;16.426;2022-10-30T08:03:20;18.92;;;6.57;;
55409;SDS011;41279;43.546;16.426;2022-10-30T08:05:46;21.08;;;6.13;;
55409;SDS011;41279;43.546;16.426;2022-10-30T08:08:11;19.00;;;6.30;;
55409;SDS011;41279;43.546;16.426;2022-10-30T08:10:37;14.25;;;5.50;;
55409;SDS011;41279;43.546;16.426;2022-10-30T08:13:02;15.93;;;5.68;;
55409;SDS011;41279;43.546;16.426;2022-10-30T08:15:27;14.00;;;5.80;;
55409;SDS011;41279;43.546;16.426;2022-10-30T08:17:53;16.73;;;6.57;;
55409;SDS011;41279;43.546;16.426;2022-10-30T08:20:19;10.70;;;5.88;;
55409;SDS011;41279;43.546;16.426;2022-10-30T08:25:16;12.63;;;5.22;;
55409;SDS011;41279;43.546;16.426;2022-10-30T08:27:50;11.55;;;4.57;;
55409;SDS011;41279;43.546;16.426;2022-10-30T08:30:24;12.45;;;5.53;;
55409;SDS011;41279;43.546;16.426;2022-10-30T08:32:51;13.95;;;5.72;;
55409;SDS011;41279;43.546;16.426;2022-10-30T08:35:21;10.00;;;4.95;;
55409;SDS011;41279;43.546;16.426;2022-10-30T08:37:46;9.38;;;5.22;;
55409;SDS011;41279;43.546;16.426;2022-10-30T08:40:11;12.00;;;5.78;;
55409;SDS011;41279;43.546;16.426;2022-10-30T08:42:37;13.70;;;5.13;;
55409;SDS011;41279;43.546;16.426;2022-10-30T08:45:03;12.10;;;5.20;;
55409;SDS011;41279;43.546;16.426;2022-10-30T08:47:28;12.68;;;5.20;;
55409;SDS011;41279;43.546;16.426;2022-10-30T08:49:54;11.10;;;4.97;;
55409;SDS011;41279;43.546;16.426;2022-10-30T08:52:19;10.05;;;4.82;;
55409;SDS011;41279;43.546;16.426;2022-10-30T08:54:44;13.20;;;5.00;;
55409;SDS011;41279;43.546;16.426;2022-10-30T08:57:10;19.23;;;6.93;;
55409;SDS011;41279;43.546;16.426;2022-10-30T08:59:35;10.23;;;5.45;;
55409;SDS011;41279;43.546;16.426;2022-10-30T09:02:00;11.40;;;5.35;;
55409;SDS011;41279;43.546;16.426;2022-10-30T09:04:26;12.27;;;5.78;;
55409;SDS011;41279;43.546;16.426;2022-10-30T09:06:51;11.48;;;5.70;;
55409;SDS011;41279;43.546;16.426;2022-10-30T09:09:16;10.38;;;5.68;;
55409;SDS011;41279;43.546;16.426;2022-10-30T09:11:42;12.27;;;6.13;;
55409;SDS011;41279;43.546;16.426;2022-10-30T09:14:07;11.85;;;5.97;;
55409;SDS011;41279;43.546;16.426;2022-10-30T09:16:33;13.23;;;6.28;;
55409;SDS011;41279;43.546;16.426;2022-10-30T09:18:58;12.65;;;5.38;;
55409;SDS011;41279;43.546;16.426;2022-10-30T09:21:23;12.30;;;5.88;;
55409;SDS011;41279;43.546;16.426;2022-10-30T09:23:49;11.05;;;5.03;;
55409;SDS011;41279;43.546;16.426;2022-10-30T09:26:14;11.80;;;5.30;;
55409;SDS011;41279;43.546;16.426;2022-10-30T09:28:39;12.82;;;5.55;;
55409;SDS011;41279;43.546;16.426;2022-10-30T09:31:05;11.00;;;5.18;;
55409;SDS011;41279;43.546;16.426;2022-10-30T09:33:30;11.18;;;5.38;;
55409;SDS011;41279;43.546;16.426;2022-10-30T09:35:55;9.18;;;4.88;;
55409;SDS011;41279;43.546;16.426;2022-10-30T09:38:21;11.57;;;5.97;;
55409;SDS011;41279;43.546;16.426;2022-10-30T09:43:37;12.98;;;5.78;;
55409;SDS011;41279;43.546;16.426;2022-10-30T09:46:38;9.43;;;5.20;;
55409;SDS011;41279;43.546;16.426;2022-10-30T09:49:38;11.10;;;5.28;;
55409;SDS011;41279;43.546;16.426;2022-10-30T09:54:54;11.57;;;5.93;;
55409;SDS011;41279;43.546;16.426;2022-10-30T10:00:29;11.48;;;5.68;;
55409;SDS011;41279;43.546;16.426;2022-10-30T10:03:19;11.85;;;5.03;;
55409;SDS011;41279;43.546;16.426;2022-10-30T10:05:55;10.38;;;4.60;;
55409;SDS011;41279;43.546;16.426;2022-10-30T10:08:26;8.95;;;4.85;;
55409;SDS011;41279;43.546;16.426;2022-10-30T10:10:59;9.18;;;5.28;;
55409;SDS011;41279;43.546;16.426;2022-10-30T10:13:35;11.25;;;5.28;;
55409;SDS011;41279;43.546;16.426;2022-10-30T10:18:48;11.52;;;4.95;;
55409;SDS011;41279;43.546;16.426;2022-10-30T10:21:37;9.50;;;5.05;;
55409;SDS011;41279;43.546;16.426;2022-10-30T10:24:12;10.48;;;5.40;;
55409;SDS011;41279;43.546;16.426;2022-10-30T10:43:30;12.07;;;4.78;;
55409;SDS011;41279;43.546;16.426;2022-10-30T10:51:38;9.13;;;4.60;;
55409;SDS011;41279;43.546;16.426;2022-10-30T10:54:10;8.45;;;4.93;;
55409;SDS011;41279;43.546;16.426;2022-10-30T10:56:39;10.02;;;4.90;;
55409;SDS011;41279;43.546;16.426;2022-10-30T10:59:14;9.18;;;4.68;;
55409;SDS011;41279;43.546;16.426;2022-10-30T11:01:41;9.65;;;5.10;;
55409;SDS011;41279;43.546;16.426;2022-10-30T11:06:49;8.52;;;4.93;;
55409;SDS011;41279;43.546;16.426;2022-10-30T11:09:18;9.90;;;4.93;;
55409;SDS011;41279;43.546;16.426;2022-10-30T11:11:45;10.05;;;5.88;;
55409;SDS011;41279;43.546;16.426;2022-10-30T11:14:33;10.65;;;5.25;;
55409;SDS011;41279;43.546;16.426;2022-10-30T11:17:12;11.80;;;6.03;;
55409;SDS011;41279;43.546;16.426;2022-10-30T11:19:45;15.73;;;7.57;;
55409;SDS011;41279;43.546;16.426;2022-10-30T11:22:26;13.80;;;5.90;;
55409;SDS011;41279;43.546;16.426;2022-10-30T11:24:55;11.15;;;5.35;;
55409;SDS011;41279;43.546;16.426;2022-10-30T11:27:41;10.60;;;5.10;;
55409;SDS011;41279;43.546;16.426;2022-10-30T11:30:15;10.18;;;4.57;;
55409;SDS011;41279;43.546;16.426;2022-10-30T11:32:42;9.63;;;4.63;;
55409;SDS011;41279;43.546;16.426;2022-10-30T11:37:34;9.63;;;4.68;;
55409;SDS011;41279;43.546;16.426;2022-10-30T11:40:22;10.10;;;4.88;;
55409;SDS011;41279;43.546;16.426;2022-10-30T11:45:19;9.93;;;4.70;;
55409;SDS011;41279;43.546;16.426;2022-10-30T11:47:50;11.25;;;5.13;;
55409;SDS011;41279;43.546;16.426;2022-10-30T11:50:18;12.05;;;5.00;;
55409;SDS011;41279;43.546;16.426;2022-10-30T11:52:46;8.18;;;4.75;;
55409;SDS011;41279;43.546;16.426;2022-10-30T11:57:48;7.80;;;4.50;;
55409;SDS011;41279;43.546;16.426;2022-10-30T12:00:22;10.13;;;4.78;;
55409;SDS011;41279;43.546;16.426;2022-10-30T12:02:53;11.63;;;6.30;;
55409;SDS011;41279;43.546;16.426;2022-10-30T12:10:30;9.73;;;4.43;;
55409;SDS011;41279;43.546;16.426;2022-10-30T12:12:55;10.60;;;4.50;;
55409;SDS011;41279;43.546;16.426;2022-10-30T12:15:24;9.13;;;5.10;;
55409;SDS011;41279;43.546;16.426;2022-10-30T12:17:54;9.13;;;4.60;;
55409;SDS011;41279;43.546;16.426;2022-10-30T12:20:30;12.60;;;5.13;;
55409;SDS011;41279;43.546;16.426;2022-10-30T12:22:57;8.18;;;4.90;;
55409;SDS011;41279;43.546;16.426;2022-10-30T12:25:32;9.55;;;5.30;;
55409;SDS011;41279;43.546;16.426;2022-10-30T12:27:58;10.07;;;5.65;;
55409;SDS011;41279;43.546;16.426;2022-10-30T12:30:28;11.07;;;5.15;;
55409;SDS011;41279;43.546;16.426;2022-10-30T12:32:59;11.10;;;5.18;;
55409;SDS011;41279;43.546;16.426;2022-10-30T12:35:55;12.38;;;4.95;;
55409;SDS011;41279;43.546;16.426;2022-10-30T12:43:58;9.63;;;5.22;;
55409;SDS011;41279;43.546;16.426;2022-10-30T12:49:13;8.18;;;4.78;;
55409;SDS011;41279;43.546;16.426;2022-10-30T12:54:57;8.57;;;4.93;;
55409;SDS011;41279;43.546;16.426;2022-10-30T12:57:26;9.45;;;5.53;;
55409;SDS011;41279;43.546;16.426;2022-10-30T13:08:05;8.95;;;4.45;;
55409;SDS011;41279;43.546;16.426;2022-10-30T13:10:38;9.60;;;5.05;;
55409;SDS011;41279;43.546;16.426;2022-10-30T13:13:09;8.80;;;5.10;;
55409;SDS011;41279;43.546;16.426;2022-10-30T13:15:41;10.20;;;5.05;;
55409;SDS011;41279;43.546;16.426;2022-10-30T13:18:15;11.02;;;6.30;;
55409;SDS011;41279;43.546;16.426;2022-10-30T13:20:41;10.52;;;5.32;;
55409;SDS011;41279;43.546;16.426;2022-10-30T13:23:14;9.57;;;5.50;;
55409;SDS011;41279;43.546;16.426;2022-10-30T13:26:00;9.98;;;5.22;;
55409;SDS011;41279;43.546;16.426;2022-10-30T13:28:38;9.45;;;5.47;;
55409;SDS011;41279;43.546;16.426;2022-10-30T13:31:15;12.55;;;5.72;;
55409;SDS011;41279;43.546;16.426;2022-10-30T13:36:30;13.48;;;6.82;;
55409;SDS011;41279;43.546;16.426;2022-10-30T13:39:16;12.73;;;6.75;;
55409;SDS011;41279;43.546;16.426;2022-10-30T13:47:36;9.77;;;5.10;;
55409;SDS011;41279;43.546;16.426;2022-10-30T13:52:30;9.38;;;5.00;;
55409;SDS011;41279;43.546;16.426;2022-10-30T13:55:02;8.32;;;5.10;;
55409;SDS011;41279;43.546;16.426;2022-10-30T13:57:54;9.52;;;5.43;;
55409;SDS011;41279;43.546;16.426;2022-10-30T14:03:24;9.93;;;5.40;;
55409;SDS011;41279;43.546;16.426;2022-10-30T14:11:21;7.45;;;4.50;;
55409;SDS011;41279;43.546;16.426;2022-10-30T14:16:31;10.75;;;6.13;;
55409;SDS011;41279;43.546;16.426;2022-10-30T14:22:18;10.32;;;5.82;;
55409;SDS011;41279;43.546;16.426;2022-10-30T14:26:52;7.47;;;4.47;;
55409;SDS011;41279;43.546;16.426;2022-10-30T14:32:01;9.07;;;5.18;;
55409;SDS011;41279;43.546;16.426;2022-10-30T14:37:16;8.70;;;4.68;;
55409;SDS011;41279;43.546;16.426;2022-10-30T14:43:11;11.45;;;5.25;;
55409;SDS011;41279;43.546;16.426;2022-10-30T14:45:55;9.93;;;4.88;;
55409;SDS011;41279;43.546;16.426;2022-10-30T14:48:27;9.18;;;5.20;;
55409;SDS011;41279;43.546;16.426;2022-10-30T14:51:11;10.75;;;4.75;;
55409;SDS011;41279;43.546;16.426;2022-10-30T14:53:51;9.63;;;5.43;;
55409;SDS011;41279;43.546;16.426;2022-10-30T14:59:43;10.88;;;4.95;;
55409;SDS011;41279;43.546;16.426;2022-10-30T15:07:31;8.88;;;4.50;;
55409;SDS011;41279;43.546;16.426;2022-10-30T15:13:20;10.15;;;4.57;;
55409;SDS011;41279;43.546;16.426;2022-10-30T15:15:58;9.52;;;4.63;;
55409;SDS011;41279;43.546;16.426;2022-10-30T15:18:26;10.10;;;4.68;;
55409;SDS011;41279;43.546;16.426;2022-10-30T15:20:52;10.35;;;5.15;;
55409;SDS011;41279;43.546;16.426;2022-10-30T15:23:23;8.80;;;5.38;;
55409;SDS011;41279;43.546;16.426;2022-10-30T15:25:55;9.43;;;4.68;;
55409;SDS011;41279;43.546;16.426;2022-10-30T15:28:25;8.13;;;4.78;;
55409;SDS011;41279;43.546;16.426;2022-10-30T15:31:41;10.77;;;4.95;;
55409;SDS011;41279;43.546;16.426;2022-10-30T15:33:42;10.85;;;5.10;;
55409;SDS011;41279;43.546;16.426;2022-10-30T15:36:41;12.25;;;5.50;;
55409;SDS011;41279;43.546;16.426;2022-10-30T15:41:47;15.95;;;5.88;;
55409;SDS011;41279;43.546;16.426;2022-10-30T15:44:18;10.82;;;5.60;;
55409;SDS011;41279;43.546;16.426;2022-10-30T15:46:48;10.70;;;4.78;;
55409;SDS011;41279;43.546;16.426;2022-10-30T15:49:19;15.65;;;6.22;;
55409;SDS011;41279;43.546;16.426;2022-10-30T15:51:52;13.18;;;6.40;;
55409;SDS011;41279;43.546;16.426;2022-10-30T15:54:18;11.60;;;6.13;;
55409;SDS011;41279;43.546;16.426;2022-10-30T15:56:45;18.52;;;8.73;;
55409;SDS011;41279;43.546;16.426;2022-10-30T15:59:24;16.92;;;7.72;;
55409;SDS011;41279;43.546;16.426;2022-10-30T16:01:52;14.65;;;6.53;;
55409;SDS011;41279;43.546;16.426;2022-10-30T16:06:50;16.30;;;6.22;;
55409;SDS011;41279;43.546;16.426;2022-10-30T16:09:17;13.32;;;5.97;;
55409;SDS011;41279;43.546;16.426;2022-10-30T16:11:43;13.57;;;5.72;;
55409;SDS011;41279;43.546;16.426;2022-10-30T16:14:13;14.27;;;5.85;;
55409;SDS011;41279;43.546;16.426;2022-10-30T16:16:42;14.27;;;5.82;;
55409;SDS011;41279;43.546;16.426;2022-10-30T16:19:10;12.98;;;6.43;;
55409;SDS011;41279;43.546;16.426;2022-10-30T16:21:52;15.55;;;6.82;;
55409;SDS011;41279;43.546;16.426;2022-10-30T16:24:18;14.00;;;7.28;;
55409;SDS011;41279;43.546;16.426;2022-10-30T16:26:59;14.02;;;6.70;;
55409;SDS011;41279;43.546;16.426;2022-10-30T16:29:47;15.23;;;6.93;;
55409;SDS011;41279;43.546;16.426;2022-10-30T16:32:16;14.48;;;6.78;;
55409;SDS011;41279;43.546;16.426;2022-10-30T16:34:45;15.90;;;7.25;;
55409;SDS011;41279;43.546;16.426;2022-10-30T16:37:13;10.43;;;6.40;;
55409;SDS011;41279;43.546;16.426;2022-10-30T16:39:44;12.93;;;6.33;;
55409;SDS011;41279;43.546;16.426;2022-10-30T16:42:17;11.18;;;5.25;;
55409;SDS011;41279;43.546;16.426;2022-10-30T16:44:47;15.70;;;6.43;;
55409;SDS011;41279;43.546;16.426;2022-10-30T16:52:12;11.48;;;5.22;;
55409;SDS011;41279;43.546;16.426;2022-10-30T16:54:41;8.32;;;5.40;;
55409;SDS011;41279;43.546;16.426;2022-10-30T16:57:23;9.25;;;4.80;;
55409;SDS011;41279;43.546;16.426;2022-10-30T16:59:51;15.00;;;5.45;;
55409;SDS011;41279;43.546;16.426;2022-10-30T17:02:18;11.00;;;5.70;;
55409;SDS011;41279;43.546;16.426;2022-10-30T17:04:47;13.48;;;5.20;;
55409;SDS011;41279;43.546;16.426;2022-10-30T17:07:18;11.52;;;5.47;;
55409;SDS011;41279;43.546;16.426;2022-10-30T17:09:47;10.05;;;5.15;;